sensor_id;sensor_type;location;lat;lon;timestamp;pressure;altitude;pressure_sealevel;temperature;humidity
36664;BME280;53333;51.976;20.144;2024-02-26T00:01:11;99285.13;;;7.27;61.56
36664;BME280;53333;51.976;20.144;2024-02-26T00:03:45;99294.34;;;7.20;61.67
36664;BME280;53333;51.976;20.144;2024-02-26T00:06:19;99294.56;;;7.15;61.83
36664;BME280;53333;51.976;20.144;2024-02-26T00:08:52;99285.88;;;7.12;61.88
36664;BME280;53333;51.976;20.144;2024-02-26T00:11:26;99290.53;;;7.06;61.95
36664;BME280;53333;51.976;20.144;2024-02-26T00:13:59;99291.69;;;7.01;62.14
36664;BME280;53333;51.976;20.144;2024-02-26T00:16:32;99285.66;;;6.97;62.42
36664;BME280;53333;51.976;20.144;2024-02-26T00:19:05;99284.94;;;6.94;62.58
36664;BME280;53333;51.976;20.144;2024-02-26T00:21:40;99284.25;;;6.90;62.69
36664;BME280;53333;51.976;20.144;2024-02-26T00:24:13;99277.28;;;6.87;62.68
36664;BME280;53333;51.976;20.144;2024-02-26T00:26:47;99281.72;;;6.87;62.88
36664;BME280;53333;51.976;20.144;2024-02-26T00:29:24;99279.06;;;6.87;62.86
36664;BME280;53333;51.976;20.144;2024-02-26T00:31:58;99279.06;;;6.87;63.01
36664;BME280;53333;51.976;20.144;2024-02-26T00:34:30;99272.91;;;6.86;63.10
36664;BME280;53333;51.976;20.144;2024-02-26T00:37:04;99269.44;;;6.84;62.93
36664;BME280;53333;51.976;20.144;2024-02-26T00:39:37;99279.28;;;6.82;63.18
36664;BME280;53333;51.976;20.144;2024-02-26T00:42:12;99276.78;;;6.79;63.39
36664;BME280;53333;51.976;20.144;2024-02-26T00:44:45;99276.78;;;6.79;63.36
36664;BME280;53333;51.976;20.144;2024-02-26T00:47:18;99268.97;;;6.76;63.17
36664;BME280;53333;51.976;20.144;2024-02-26T00:49:51;99264.66;;;6.73;63.52
36664;BME280;53333;51.976;20.144;2024-02-26T00:52:24;99263.00;;;6.71;63.75
36664;BME280;53333;51.976;20.144;2024-02-26T00:54:56;99271.91;;;6.70;63.59
36664;BME280;53333;51.976;20.144;2024-02-26T00:57:31;99274.69;;;6.67;63.77
36664;BME280;53333;51.976;20.144;2024-02-26T01:00:05;99267.75;;;6.64;64.03
36664;BME280;53333;51.976;20.144;2024-02-26T01:02:40;99268.66;;;6.63;63.90
36664;BME280;53333;51.976;20.144;2024-02-26T01:05:14;99273.13;;;6.63;63.91
36664;BME280;53333;51.976;20.144;2024-02-26T01:07:48;99273.13;;;6.63;64.13
36664;BME280;53333;51.976;20.144;2024-02-26T01:10:21;99273.13;;;6.63;64.13
36664;BME280;53333;51.976;20.144;2024-02-26T01:12:55;99274.03;;;6.62;64.21
36664;BME280;53333;51.976;20.144;2024-02-26T01:15:28;99275.00;;;6.61;64.13
36664;BME280;53333;51.976;20.144;2024-02-26T01:18:01;99272.41;;;6.59;64.25
36664;BME280;53333;51.976;20.144;2024-02-26T01:20:34;99284.88;;;6.57;64.32
36664;BME280;53333;51.976;20.144;2024-02-26T01:23:08;99272.50;;;6.58;64.22
36664;BME280;53333;51.976;20.144;2024-02-26T01:25:41;99274.31;;;6.55;64.24
36664;BME280;53333;51.976;20.144;2024-02-26T01:28:16;99268.25;;;6.53;64.33
36664;BME280;53333;51.976;20.144;2024-02-26T01:30:49;99277.13;;;6.52;64.44
36664;BME280;53333;51.976;20.144;2024-02-26T01:33:22;99271.03;;;6.50;64.57
36664;BME280;53333;51.976;20.144;2024-02-26T01:35:55;99270.19;;;6.50;64.63
36664;BME280;53333;51.976;20.144;2024-02-26T01:38:28;99265.81;;;6.49;64.69
36664;BME280;53333;51.976;20.144;2024-02-26T01:41:01;99276.47;;;6.47;64.56
36664;BME280;53333;51.976;20.144;2024-02-26T01:43:35;99272.13;;;6.46;64.68
36664;BME280;53333;51.976;20.144;2024-02-26T01:46:11;99271.31;;;6.44;64.71
36664;BME280;53333;51.976;20.144;2024-02-26T01:48:47;99274.03;;;6.43;64.87
36664;BME280;53333;51.976;20.144;2024-02-26T01:51:22;99265.22;;;6.42;64.73
36664;BME280;53333;51.976;20.144;2024-02-26T01:53:55;99278.50;;;6.42;64.74
36664;BME280;53333;51.976;20.144;2024-02-26T01:56:28;99267.88;;;6.42;64.81
36664;BME280;53333;51.976;20.144;2024-02-26T01:59:05;99274.25;;;6.38;64.86
36664;BME280;53333;51.976;20.144;2024-02-26T02:01:44;99266.34;;;6.36;64.92
36664;BME280;53333;51.976;20.144;2024-02-26T02:04:17;99270.94;;;6.33;64.99
36664;BME280;53333;51.976;20.144;2024-02-26T02:06:50;99264.94;;;6.29;65.04
36664;BME280;53333;51.976;20.144;2024-02-26T02:09:25;99263.25;;;6.27;65.08
36664;BME280;53333;51.976;20.144;2024-02-26T02:11:58;99270.03;;;6.34;64.29
36664;BME280;53333;51.976;20.144;2024-02-26T02:14:33;99268.06;;;6.18;64.74
36664;BME280;53333;51.976;20.144;2024-02-26T02:17:06;99269.13;;;6.14;64.86
36664;BME280;53333;51.976;20.144;2024-02-26T02:19:39;99271.91;;;6.11;65.03
36664;BME280;53333;51.976;20.144;2024-02-26T02:22:13;99272.84;;;6.10;65.17
36664;BME280;53333;51.976;20.144;2024-02-26T02:24:47;99272.06;;;6.08;65.06
36664;BME280;53333;51.976;20.144;2024-02-26T02:27:20;99273.91;;;6.06;65.06
36664;BME280;53333;51.976;20.144;2024-02-26T02:29:53;99279.38;;;6.03;65.26
36664;BME280;53333;51.976;20.144;2024-02-26T02:32:27;99283.84;;;6.01;65.65
36664;BME280;53333;51.976;20.144;2024-02-26T02:35:02;99278.69;;;5.98;65.32
36664;BME280;53333;51.976;20.144;2024-02-26T02:37:36;99281.41;;;5.96;65.50
36664;BME280;53333;51.976;20.144;2024-02-26T02:40:10;99277.06;;;5.94;65.80
36664;BME280;53333;51.976;20.144;2024-02-26T02:42:43;99277.13;;;5.92;65.44
36664;BME280;53333;51.976;20.144;2024-02-26T02:45:16;99282.50;;;5.91;65.58
36664;BME280;53333;51.976;20.144;2024-02-26T02:47:49;99276.31;;;5.90;65.64
36664;BME280;53333;51.976;20.144;2024-02-26T02:50:22;99279.91;;;5.89;65.67
36664;BME280;53333;51.976;20.144;2024-02-26T02:52:56;99272.88;;;5.88;65.70
36664;BME280;53333;51.976;20.144;2024-02-26T02:55:29;99281.78;;;5.87;65.79
36664;BME280;53333;51.976;20.144;2024-02-26T02:58:02;99287.09;;;5.87;65.68
36664;BME280;53333;51.976;20.144;2024-02-26T03:00:35;99284.50;;;5.86;65.66
36664;BME280;53333;51.976;20.144;2024-02-26T03:03:08;99280.19;;;5.83;65.80
36664;BME280;53333;51.976;20.144;2024-02-26T03:05:41;99281.97;;;5.82;65.81
36664;BME280;53333;51.976;20.144;2024-02-26T03:08:16;99278.44;;;5.82;65.86
36664;BME280;53333;51.976;20.144;2024-02-26T03:10:50;99287.28;;;5.82;65.96
36664;BME280;53333;51.976;20.144;2024-02-26T03:13:23;99284.69;;;5.81;65.89
36664;BME280;53333;51.976;20.144;2024-02-26T03:15:56;99289.13;;;5.80;65.79
36664;BME280;53333;51.976;20.144;2024-02-26T03:18:30;99281.16;;;5.80;65.80
36664;BME280;53333;51.976;20.144;2024-02-26T03:21:03;99279.53;;;5.78;65.78
36664;BME280;53333;51.976;20.144;2024-02-26T03:23:37;99275.16;;;5.77;65.90
36664;BME280;53333;51.976;20.144;2024-02-26T03:26:11;99275.22;;;5.75;65.76
36664;BME280;53333;51.976;20.144;2024-02-26T03:28:46;99272.63;;;5.74;65.85
36664;BME280;53333;51.976;20.144;2024-02-26T03:31:19;99271.78;;;5.73;65.87
36664;BME280;53333;51.976;20.144;2024-02-26T03:33:53;99274.56;;;5.70;65.84
36664;BME280;53333;51.976;20.144;2024-02-26T03:36:26;99273.81;;;5.67;65.91
36664;BME280;53333;51.976;20.144;2024-02-26T03:39:00;99268.59;;;5.65;66.05
36664;BME280;53333;51.976;20.144;2024-02-26T03:41:36;99276.53;;;5.65;65.89
36664;BME280;53333;51.976;20.144;2024-02-26T03:44:09;99279.31;;;5.62;65.74
36664;BME280;53333;51.976;20.144;2024-02-26T03:46:42;99284.69;;;5.60;66.00
36664;BME280;53333;51.976;20.144;2024-02-26T03:49:15;99272.47;;;5.56;66.06
36664;BME280;53333;51.976;20.144;2024-02-26T03:51:48;99282.28;;;5.54;66.02
36664;BME280;53333;51.976;20.144;2024-02-26T03:54:22;99274.47;;;5.51;66.13
36664;BME280;53333;51.976;20.144;2024-02-26T03:56:55;99279.88;;;5.48;66.19
36664;BME280;53333;51.976;20.144;2024-02-26T03:59:28;99278.22;;;5.45;66.04
36664;BME280;53333;51.976;20.144;2024-02-26T04:02:01;99279.16;;;5.44;66.27
36664;BME280;53333;51.976;20.144;2024-02-26T04:04:34;99280.06;;;5.43;66.19
36664;BME280;53333;51.976;20.144;2024-02-26T04:07:07;99289.03;;;5.41;66.14
36664;BME280;53333;51.976;20.144;2024-02-26T04:09:42;99296.09;;;5.40;66.25
36664;BME280;53333;51.976;20.144;2024-02-26T04:12:15;99297.09;;;5.38;66.26
36664;BME280;53333;51.976;20.144;2024-02-26T04:14:48;99294.56;;;5.35;66.25
36664;BME280;53333;51.976;20.144;2024-02-26T04:17:21;99294.63;;;5.33;66.27
36664;BME280;53333;51.976;20.144;2024-02-26T04:19:53;99289.53;;;5.28;66.18
36664;BME280;53333;51.976;20.144;2024-02-26T04:22:26;99283.56;;;5.23;66.41
36664;BME280;53333;51.976;20.144;2024-02-26T04:25:01;99290.75;;;5.20;66.24
36664;BME280;53333;51.976;20.144;2024-02-26T04:27:34;99294.34;;;5.19;66.54
36664;BME280;53333;51.976;20.144;2024-02-26T04:30:08;99287.44;;;5.15;66.48
36664;BME280;53333;51.976;20.144;2024-02-26T04:32:41;99287.00;;;5.25;66.09
36664;BME280;53333;51.976;20.144;2024-02-26T04:35:14;99292.66;;;5.16;66.18
36664;BME280;53333;51.976;20.144;2024-02-26T04:37:47;99282.19;;;5.13;66.30
36664;BME280;53333;51.976;20.144;2024-02-26T04:40:21;99286.75;;;5.09;66.49
36664;BME280;53333;51.976;20.144;2024-02-26T04:42:55;99288.63;;;5.07;66.53
36664;BME280;53333;51.976;20.144;2024-02-26T04:45:29;99288.69;;;5.06;66.65
36664;BME280;53333;51.976;20.144;2024-02-26T04:48:02;99283.38;;;5.06;66.69
36664;BME280;53333;51.976;20.144;2024-02-26T04:50:35;99292.22;;;5.05;66.68
36664;BME280;53333;51.976;20.144;2024-02-26T04:53:08;99289.59;;;5.05;66.86
36664;BME280;53333;51.976;20.144;2024-02-26T04:55:42;99293.22;;;5.02;66.97
36664;BME280;53333;51.976;20.144;2024-02-26T04:58:16;99283.56;;;5.01;66.88
36664;BME280;53333;51.976;20.144;2024-02-26T05:00:49;99290.56;;;5.02;67.12
36664;BME280;53333;51.976;20.144;2024-02-26T05:03:22;99289.66;;;5.03;67.16
36664;BME280;53333;51.976;20.144;2024-02-26T05:05:55;99289.66;;;5.03;67.43
36664;BME280;53333;51.976;20.144;2024-02-26T05:08:29;99290.50;;;5.04;67.30
36664;BME280;53333;51.976;20.144;2024-02-26T05:11:04;99295.72;;;5.05;67.42
36664;BME280;53333;51.976;20.144;2024-02-26T05:13:37;99286.03;;;5.06;67.39
36664;BME280;53333;51.976;20.144;2024-02-26T05:16:10;99287.78;;;5.05;67.53
36664;BME280;53333;51.976;20.144;2024-02-26T05:18:43;99296.63;;;5.06;67.58
36664;BME280;53333;51.976;20.144;2024-02-26T05:21:16;99305.41;;;5.06;67.63
36664;BME280;53333;51.976;20.144;2024-02-26T05:23:49;99300.19;;;5.05;67.53
36664;BME280;53333;51.976;20.144;2024-02-26T05:26:24;99306.38;;;5.04;67.54
36664;BME280;53333;51.976;20.144;2024-02-26T05:28:57;99307.38;;;5.01;67.54
36664;BME280;53333;51.976;20.144;2024-02-26T05:31:32;99309.22;;;4.99;67.70
36664;BME280;53333;51.976;20.144;2024-02-26T05:34:05;99312.84;;;4.97;67.57
36664;BME280;53333;51.976;20.144;2024-02-26T05:36:38;99314.75;;;4.93;67.68
36664;BME280;53333;51.976;20.144;2024-02-26T05:39:11;99314.75;;;4.93;67.54
36664;BME280;53333;51.976;20.144;2024-02-26T05:41:57;99313.03;;;4.92;67.80
36664;BME280;53333;51.976;20.144;2024-02-26T05:44:44;99318.38;;;4.90;67.69
36664;BME280;53333;51.976;20.144;2024-02-26T05:47:18;99318.38;;;4.90;67.69
36664;BME280;53333;51.976;20.144;2024-02-26T05:49:51;99325.41;;;4.91;67.80
36664;BME280;53333;51.976;20.144;2024-02-26T05:52:24;99324.47;;;4.93;67.58
36664;BME280;53333;51.976;20.144;2024-02-26T05:54:57;99323.69;;;4.90;67.70
36664;BME280;53333;51.976;20.144;2024-02-26T05:57:32;99321.03;;;4.90;67.75
36664;BME280;53333;51.976;20.144;2024-02-26T06:00:06;99336.84;;;4.92;67.78
36664;BME280;53333;51.976;20.144;2024-02-26T06:02:42;99338.66;;;4.91;67.67
36664;BME280;53333;51.976;20.144;2024-02-26T06:05:15;99339.50;;;4.92;67.60
36664;BME280;53333;51.976;20.144;2024-02-26T06:07:49;99354.47;;;4.93;67.68
36664;BME280;53333;51.976;20.144;2024-02-26T06:10:21;99349.19;;;4.93;67.70
36664;BME280;53333;51.976;20.144;2024-02-26T06:12:56;99351.66;;;4.96;67.80
36664;BME280;53333;51.976;20.144;2024-02-26T06:15:29;99348.97;;;4.98;67.69
36664;BME280;53333;51.976;20.144;2024-02-26T06:18:02;99348.06;;;4.99;67.73
36664;BME280;53333;51.976;20.144;2024-02-26T06:20:35;99350.97;;;5.15;67.16
36664;BME280;53333;51.976;20.144;2024-02-26T06:23:08;99353.06;;;5.06;67.37
36664;BME280;53333;51.976;20.144;2024-02-26T06:25:41;99354.75;;;5.09;67.50
36664;BME280;53333;51.976;20.144;2024-02-26T06:28:16;99356.16;;;5.18;67.58
36664;BME280;53333;51.976;20.144;2024-02-26T06:30:49;99353.94;;;5.29;67.55
36664;BME280;53333;51.976;20.144;2024-02-26T06:33:24;99359.66;;;5.40;67.45
36664;BME280;53333;51.976;20.144;2024-02-26T06:35:57;99364.34;;;5.56;67.29
36664;BME280;53333;51.976;20.144;2024-02-26T06:38:30;99368.16;;;5.71;67.18
36664;BME280;53333;51.976;20.144;2024-02-26T06:41:05;99358.78;;;5.84;67.05
36664;BME280;53333;51.976;20.144;2024-02-26T06:43:42;99359.09;;;5.98;66.94
36664;BME280;53333;51.976;20.144;2024-02-26T06:46:16;99360.22;;;6.13;66.66
36664;BME280;53333;51.976;20.144;2024-02-26T06:48:51;99361.31;;;6.28;66.41
36664;BME280;53333;51.976;20.144;2024-02-26T06:51:26;99358.00;;;6.44;66.34
36664;BME280;53333;51.976;20.144;2024-02-26T06:54:01;99359.91;;;6.61;66.16
36664;BME280;53333;51.976;20.144;2024-02-26T06:56:34;99359.13;;;6.78;65.75
36664;BME280;53333;51.976;20.144;2024-02-26T06:59:08;99364.59;;;6.94;65.53
36664;BME280;53333;51.976;20.144;2024-02-26T07:01:41;99361.16;;;7.11;65.29
36664;BME280;53333;51.976;20.144;2024-02-26T07:04:15;99363.81;;;7.30;64.86
36664;BME280;53333;51.976;20.144;2024-02-26T07:06:48;99364.56;;;7.51;64.79
36664;BME280;53333;51.976;20.144;2024-02-26T07:09:21;99359.22;;;7.70;64.18
36664;BME280;53333;51.976;20.144;2024-02-26T07:11:54;99370.66;;;7.89;64.15
36664;BME280;53333;51.976;20.144;2024-02-26T07:14:33;99357.91;;;8.13;63.79
36664;BME280;53333;51.976;20.144;2024-02-26T07:17:05;99363.59;;;8.41;63.25
36664;BME280;53333;51.976;20.144;2024-02-26T07:19:38;99363.88;;;8.69;62.70
36664;BME280;53333;51.976;20.144;2024-02-26T07:22:12;99364.91;;;9.00;62.22
36664;BME280;53333;51.976;20.144;2024-02-26T07:24:45;99357.94;;;9.30;61.49
36664;BME280;53333;51.976;20.144;2024-02-26T07:27:18;99364.38;;;9.57;60.95
36664;BME280;53333;51.976;20.144;2024-02-26T07:29:54;99359.09;;;9.88;60.19
36664;BME280;53333;51.976;20.144;2024-02-26T07:32:27;99360.69;;;10.21;59.61
36664;BME280;53333;51.976;20.144;2024-02-26T07:35:00;99367.00;;;10.50;58.87
36664;BME280;53333;51.976;20.144;2024-02-26T07:37:33;99357.19;;;10.79;58.41
36664;BME280;53333;51.976;20.144;2024-02-26T07:40:07;99359.63;;;11.11;57.51
36664;BME280;53333;51.976;20.144;2024-02-26T07:42:40;99358.34;;;11.45;56.82
36664;BME280;53333;51.976;20.144;2024-02-26T07:45:15;99365.53;;;11.85;56.06
36664;BME280;53333;51.976;20.144;2024-02-26T07:47:51;99372.53;;;12.28;55.06
36664;BME280;53333;51.976;20.144;2024-02-26T07:50:24;99371.69;;;12.66;54.33
36664;BME280;53333;51.976;20.144;2024-02-26T07:52:57;99375.56;;;13.00;53.10
36664;BME280;53333;51.976;20.144;2024-02-26T07:55:30;99371.19;;;13.36;52.38
36664;BME280;53333;51.976;20.144;2024-02-26T07:58:03;99368.97;;;13.91;51.26
36664;BME280;53333;51.976;20.144;2024-02-26T08:00:41;99372.59;;;14.61;49.89
36664;BME280;53333;51.976;20.144;2024-02-26T08:03:15;99370.31;;;15.36;48.43
36664;BME280;53333;51.976;20.144;2024-02-26T08:05:48;99374.44;;;16.27;46.92
36664;BME280;53333;51.976;20.144;2024-02-26T08:08:21;99369.75;;;17.14;45.02
36664;BME280;53333;51.976;20.144;2024-02-26T08:10:54;99362.28;;;17.97;43.52
36664;BME280;53333;51.976;20.144;2024-02-26T08:13:28;99367.75;;;18.74;41.86
36664;BME280;53333;51.976;20.144;2024-02-26T08:16:03;99366.69;;;19.59;39.86
36664;BME280;53333;51.976;20.144;2024-02-26T08:18:36;99366.50;;;20.43;38.66
36664;BME280;53333;51.976;20.144;2024-02-26T08:21:09;99370.81;;;21.32;37.51
36664;BME280;53333;51.976;20.144;2024-02-26T08:23:43;99360.84;;;22.25;35.51
36664;BME280;53333;51.976;20.144;2024-02-26T08:26:16;99371.16;;;23.03;34.18
36664;BME280;53333;51.976;20.144;2024-02-26T08:28:49;99365.53;;;23.92;32.82
36664;BME280;53333;51.976;20.144;2024-02-26T08:31:24;99369.91;;;24.86;31.75
36664;BME280;53333;51.976;20.144;2024-02-26T08:33:57;99372.25;;;25.79;30.22
36664;BME280;53333;51.976;20.144;2024-02-26T08:36:33;99367.78;;;26.57;29.17
36664;BME280;53333;51.976;20.144;2024-02-26T08:39:06;99369.44;;;27.36;28.03
36664;BME280;53333;51.976;20.144;2024-02-26T08:41:40;99368.44;;;28.06;27.12
36664;BME280;53333;51.976;20.144;2024-02-26T08:44:13;99363.44;;;28.70;26.17
36664;BME280;53333;51.976;20.144;2024-02-26T08:46:47;99365.59;;;29.53;27.83
36664;BME280;53333;51.976;20.144;2024-02-26T08:49:22;99366.47;;;29.99;25.38
36664;BME280;53333;51.976;20.144;2024-02-26T08:51:55;99368.03;;;30.77;23.86
36664;BME280;53333;51.976;20.144;2024-02-26T08:54:28;99379.03;;;31.64;25.51
36664;BME280;53333;51.976;20.144;2024-02-26T08:57:01;99371.84;;;31.94;23.26
36664;BME280;53333;51.976;20.144;2024-02-26T08:59:34;99367.81;;;32.38;22.13
36664;BME280;53333;51.976;20.144;2024-02-26T09:02:09;99374.78;;;32.95;20.54
36664;BME280;53333;51.976;20.144;2024-02-26T09:04:42;99381.97;;;33.43;20.20
36664;BME280;53333;51.976;20.144;2024-02-26T09:07:15;99377.25;;;33.96;19.27
36664;BME280;53333;51.976;20.144;2024-02-26T09:09:48;99367.53;;;34.39;19.25
36664;BME280;53333;51.976;20.144;2024-02-26T09:12:21;99369.94;;;34.82;18.43
36664;BME280;53333;51.976;20.144;2024-02-26T09:14:54;99379.84;;;35.17;18.02
36664;BME280;53333;51.976;20.144;2024-02-26T09:17:30;99378.25;;;35.38;17.24
36664;BME280;53333;51.976;20.144;2024-02-26T09:20:04;99379.34;;;35.59;17.58
36664;BME280;53333;51.976;20.144;2024-02-26T09:22:37;99383.41;;;35.73;17.24
36664;BME280;53333;51.976;20.144;2024-02-26T09:25:10;99378.13;;;35.94;16.64
36664;BME280;53333;51.976;20.144;2024-02-26T09:27:44;99376.22;;;35.99;16.61
36664;BME280;53333;51.976;20.144;2024-02-26T09:30:17;99372.44;;;36.11;16.62
36664;BME280;53333;51.976;20.144;2024-02-26T09:32:52;99369.78;;;36.48;15.86
36664;BME280;53333;51.976;20.144;2024-02-26T09:35:25;99377.44;;;36.96;15.84
36664;BME280;53333;51.976;20.144;2024-02-26T09:37:58;99374.88;;;37.37;15.69
36664;BME280;53333;51.976;20.144;2024-02-26T09:40:31;99367.50;;;37.63;15.44
36664;BME280;53333;51.976;20.144;2024-02-26T09:43:05;99366.78;;;37.93;15.14
36664;BME280;53333;51.976;20.144;2024-02-26T09:45:40;99371.34;;;38.25;14.60
36664;BME280;53333;51.976;20.144;2024-02-26T09:48:15;99368.84;;;38.44;14.52
36664;BME280;53333;51.976;20.144;2024-02-26T09:50:50;99371.94;;;38.74;13.93
36664;BME280;53333;51.976;20.144;2024-02-26T09:53:23;99365.75;;;39.02;13.78
36664;BME280;53333;51.976;20.144;2024-02-26T09:55:56;99371.59;;;39.21;13.64
36664;BME280;53333;51.976;20.144;2024-02-26T09:58:29;99368.91;;;39.71;13.24
36664;BME280;53333;51.976;20.144;2024-02-26T10:01:07;99372.75;;;39.91;13.04
36664;BME280;53333;51.976;20.144;2024-02-26T10:03:50;99372.28;;;40.23;12.90
36664;BME280;53333;51.976;20.144;2024-02-26T10:06:26;99371.63;;;40.42;12.79
36664;BME280;53333;51.976;20.144;2024-02-26T10:09:00;99363.91;;;40.58;12.31
36664;BME280;53333;51.976;20.144;2024-02-26T10:11:37;99373.22;;;40.82;12.25
36664;BME280;53333;51.976;20.144;2024-02-26T10:14:11;99375.84;;;41.03;12.12
36664;BME280;53333;51.976;20.144;2024-02-26T10:16:44;99372.22;;;41.27;11.97
36664;BME280;53333;51.976;20.144;2024-02-26T10:19:26;99374.22;;;41.50;11.86
36664;BME280;53333;51.976;20.144;2024-02-26T10:22:00;99373.69;;;41.67;11.93
36664;BME280;53333;51.976;20.144;2024-02-26T10:24:35;99377.16;;;41.83;11.50
36664;BME280;53333;51.976;20.144;2024-02-26T10:27:08;99374.16;;;41.99;11.34
36664;BME280;53333;51.976;20.144;2024-02-26T10:29:41;99373.94;;;42.14;11.07
36664;BME280;53333;51.976;20.144;2024-02-26T10:32:14;99373.41;;;42.31;11.32
36664;BME280;53333;51.976;20.144;2024-02-26T10:34:55;99369.75;;;42.50;11.24
36664;BME280;53333;51.976;20.144;2024-02-26T10:37:28;99368.97;;;42.63;10.93
36664;BME280;53333;51.976;20.144;2024-02-26T10:40:02;99375.16;;;42.79;10.50
36664;BME280;53333;51.976;20.144;2024-02-26T10:42:35;99369.25;;;42.94;10.54
36664;BME280;53333;51.976;20.144;2024-02-26T10:45:09;99366.59;;;43.03;10.35
36664;BME280;53333;51.976;20.144;2024-02-26T10:47:42;99373.72;;;42.95;10.02
36664;BME280;53333;51.976;20.144;2024-02-26T10:50:17;99369.13;;;42.72;10.54
36664;BME280;53333;51.976;20.144;2024-02-26T10:52:54;99362.75;;;42.66;10.55
36664;BME280;53333;51.976;20.144;2024-02-26T10:55:28;99372.44;;;42.74;10.61
36664;BME280;53333;51.976;20.144;2024-02-26T10:58:01;99361.41;;;42.77;10.38
36664;BME280;53333;51.976;20.144;2024-02-26T11:00:36;99358.66;;;42.91;10.82
36664;BME280;53333;51.976;20.144;2024-02-26T11:03:11;99361.38;;;42.96;10.46
36664;BME280;53333;51.976;20.144;2024-02-26T11:05:48;99360.94;;;42.89;10.49
36664;BME280;53333;51.976;20.144;2024-02-26T11:08:21;99359.25;;;42.88;10.38
36664;BME280;53333;51.976;20.144;2024-02-26T11:10:56;99362.03;;;42.74;10.61
36664;BME280;53333;51.976;20.144;2024-02-26T11:13:31;99350.56;;;42.57;10.67
36664;BME280;53333;51.976;20.144;2024-02-26T11:16:08;99361.94;;;42.46;10.79
36664;BME280;53333;51.976;20.144;2024-02-26T11:18:42;99363.66;;;42.42;10.86
36664;BME280;53333;51.976;20.144;2024-02-26T11:21:21;99349.28;;;42.30;10.86
36664;BME280;53333;51.976;20.144;2024-02-26T11:23:59;99360.97;;;42.18;10.69
36664;BME280;53333;51.976;20.144;2024-02-26T11:26:37;99349.22;;;41.97;11.16
36664;BME280;53333;51.976;20.144;2024-02-26T11:29:14;99355.50;;;41.89;11.10
36664;BME280;53333;51.976;20.144;2024-02-26T11:31:50;99350.44;;;41.91;11.31
36664;BME280;53333;51.976;20.144;2024-02-26T11:34:27;99356.50;;;41.79;11.16
36664;BME280;53333;51.976;20.144;2024-02-26T11:37:10;99345.47;;;41.64;11.24
36664;BME280;53333;51.976;20.144;2024-02-26T11:39:45;99337.97;;;41.59;11.20
36664;BME280;53333;51.976;20.144;2024-02-26T11:42:23;99338.56;;;41.56;11.43
36664;BME280;53333;51.976;20.144;2024-02-26T11:44:56;99344.31;;;41.46;11.44
36664;BME280;53333;51.976;20.144;2024-02-26T11:47:34;99338.22;;;41.38;11.60
36664;BME280;53333;51.976;20.144;2024-02-26T11:50:34;99329.72;;;41.19;11.83
36664;BME280;53333;51.976;20.144;2024-02-26T11:53:24;99333.41;;;40.91;11.87
36664;BME280;53333;51.976;20.144;2024-02-26T11:56:30;99336.69;;;40.68;12.18
36664;BME280;53333;51.976;20.144;2024-02-26T11:59:10;99332.25;;;40.62;11.95
36664;BME280;53333;51.976;20.144;2024-02-26T12:01:46;99332.41;;;40.47;11.90
36664;BME280;53333;51.976;20.144;2024-02-26T12:04:24;99334.97;;;40.38;12.16
36664;BME280;53333;51.976;20.144;2024-02-26T12:07:00;99321.53;;;40.45;11.98
36664;BME280;53333;51.976;20.144;2024-02-26T12:09:36;99326.56;;;40.38;12.24
36664;BME280;53333;51.976;20.144;2024-02-26T12:12:17;99333.34;;;40.32;12.44
36664;BME280;53333;51.976;20.144;2024-02-26T12:14:51;99330.75;;;40.06;12.71
36664;BME280;53333;51.976;20.144;2024-02-26T12:17:26;99333.91;;;39.89;12.58
36664;BME280;53333;51.976;20.144;2024-02-26T12:20:08;99332.69;;;39.46;12.99
36664;BME280;53333;51.976;20.144;2024-02-26T12:22:45;99336.69;;;37.90;13.79
36664;BME280;53333;51.976;20.144;2024-02-26T12:25:23;99331.91;;;36.10;15.27
36664;BME280;53333;51.976;20.144;2024-02-26T12:27:57;99335.81;;;35.64;15.64
36664;BME280;53333;51.976;20.144;2024-02-26T12:31:02;99339.00;;;35.73;15.98
36664;BME280;53333;51.976;20.144;2024-02-26T12:34:03;99337.56;;;35.93;15.62
36664;BME280;53333;51.976;20.144;2024-02-26T12:36:37;99335.22;;;36.07;15.36
36664;BME280;53333;51.976;20.144;2024-02-26T12:39:12;99336.25;;;36.28;15.62
36664;BME280;53333;51.976;20.144;2024-02-26T12:41:46;99341.97;;;36.43;15.56
36664;BME280;53333;51.976;20.144;2024-02-26T12:44:24;99334.91;;;36.30;15.59
36664;BME280;53333;51.976;20.144;2024-02-26T12:47:01;99335.38;;;36.22;15.48
36664;BME280;53333;51.976;20.144;2024-02-26T12:49:35;99341.34;;;36.09;15.51
36664;BME280;53333;51.976;20.144;2024-02-26T12:52:09;99344.97;;;35.60;16.12
36664;BME280;53333;51.976;20.144;2024-02-26T12:54:42;99343.38;;;35.47;15.88
36664;BME280;53333;51.976;20.144;2024-02-26T12:57:18;99347.06;;;35.31;16.04
36664;BME280;53333;51.976;20.144;2024-02-26T12:59:51;99355.13;;;34.93;16.63
36664;BME280;53333;51.976;20.144;2024-02-26T13:02:25;99346.13;;;34.52;16.54
36664;BME280;53333;51.976;20.144;2024-02-26T13:04:58;99341.47;;;34.07;16.48
36664;BME280;53333;51.976;20.144;2024-02-26T13:07:33;99340.00;;;34.04;16.75
36664;BME280;53333;51.976;20.144;2024-02-26T13:10:06;99342.69;;;34.16;16.65
36664;BME280;53333;51.976;20.144;2024-02-26T13:12:44;99336.16;;;34.34;16.81
36664;BME280;53333;51.976;20.144;2024-02-26T13:15:18;99343.09;;;34.36;16.97
36664;BME280;53333;51.976;20.144;2024-02-26T13:17:52;99344.03;;;34.42;17.04
36664;BME280;53333;51.976;20.144;2024-02-26T13:20:26;99339.03;;;34.10;16.99
36664;BME280;53333;51.976;20.144;2024-02-26T13:23:01;99332.47;;;33.59;17.81
36664;BME280;53333;51.976;20.144;2024-02-26T13:25:35;99338.94;;;33.00;17.93
36664;BME280;53333;51.976;20.144;2024-02-26T13:28:17;99330.72;;;32.34;18.43
36664;BME280;53333;51.976;20.144;2024-02-26T13:30:51;99332.28;;;31.69;18.50
36664;BME280;53333;51.976;20.144;2024-02-26T13:33:25;99332.50;;;31.12;19.66